createdAt,value
2023-05-01T00:00:53.960Z,64.19
2023-05-01T00:03:22.079Z,64.43
2023-05-01T00:05:48.953Z,64.36
2023-05-01T00:08:16.038Z,64.31
2023-05-01T00:10:43.014Z,64.48
2023-05-01T00:13:10.121Z,64.26
2023-05-01T00:15:37.407Z,64.63
2023-05-01T00:18:04.131Z,64.32
2023-05-01T00:20:32.322Z,64.23
2023-05-01T00:22:59.006Z,64.48
2023-05-01T00:25:25.878Z,64.68
2023-05-01T00:27:52.625Z,64.46
2023-05-01T00:30:19.429Z,64.28
2023-05-01T00:32:46.182Z,64.33
2023-05-01T00:35:13.394Z,64.52
2023-05-01T00:37:42.232Z,64.70
2023-05-01T00:40:09.865Z,64.61
2023-05-01T00:42:39.180Z,64.39
2023-05-01T00:45:07.352Z,64.66
2023-05-01T00:47:35.906Z,64.50
2023-05-01T00:50:03.385Z,64.34
2023-05-01T00:52:30.060Z,64.64
2023-05-01T00:54:59.211Z,64.46
2023-05-01T00:57:26.429Z,64.70
2023-05-01T00:59:53.433Z,64.57
2023-05-01T01:02:21.781Z,64.36
2023-05-01T01:04:48.831Z,64.51
2023-05-01T01:07:22.593Z,64.47
2023-05-01T01:10:02.873Z,64.67
2023-05-01T01:12:37.961Z,64.70
2023-05-01T01:15:14.599Z,64.28
2023-05-01T01:17:48.265Z,64.22
2023-05-01T01:20:32.121Z,64.46
2023-05-01T01:23:13.732Z,64.44
2023-05-01T01:26:11.547Z,64.45
2023-05-01T01:29:07.437Z,64.67
2023-05-01T01:31:42.795Z,64.63
2023-05-01T01:34:15.325Z,64.53
2023-05-01T01:36:49.383Z,64.19
2023-05-01T01:39:27.126Z,64.29
2023-05-01T01:41:57.467Z,64.08
2023-05-01T01:44:33.915Z,64.23
2023-05-01T01:47:06.149Z,64.37
2023-05-01T01:49:37.383Z,64.06
2023-05-01T01:52:07.996Z,64.53
2023-05-01T01:54:40.731Z,64.46
2023-05-01T01:57:09.860Z,64.22
2023-05-01T01:59:36.721Z,64.50
2023-05-01T02:02:05.116Z,64.46
2023-05-01T02:04:35.454Z,64.44
2023-05-01T02:07:03.915Z,64.47
2023-05-01T02:09:31.460Z,64.56
2023-05-01T02:12:00.982Z,64.43
2023-05-01T02:14:28.583Z,64.24
2023-05-01T02:16:57.120Z,64.47
2023-05-01T02:19:25.046Z,64.35
2023-05-01T02:21:55.127Z,64.29
2023-05-01T02:24:24.377Z,64.20
2023-05-01T02:26:57.693Z,64.20
2023-05-01T02:29:25.650Z,64.52
2023-05-01T02:31:52.470Z,64.14
2023-05-01T02:34:19.260Z,64.69
2023-05-01T02:36:46.019Z,64.21
2023-05-01T02:39:14.397Z,64.36
2023-05-01T02:41:42.314Z,64.18
2023-05-01T02:44:11.788Z,64.57
2023-05-01T02:46:43.348Z,64.05
2023-05-01T02:49:10.330Z,64.34
2023-05-01T02:51:38.484Z,64.18
2023-05-01T02:54:05.993Z,64.45
2023-05-01T02:56:34.152Z,64.21
2023-05-01T02:59:00.876Z,64.29
2023-05-01T03:01:28.532Z,64.39
2023-05-01T03:03:55.540Z,64.06
2023-05-01T03:06:22.390Z,64.33
2023-05-01T03:08:49.266Z,64.33
2023-05-01T03:11:15.964Z,64.17
2023-05-01T03:13:44.312Z,64.32
2023-05-01T03:16:11.182Z,64.31
2023-05-01T03:18:38.094Z,64.09
2023-05-01T03:21:05.157Z,64.37
2023-05-01T03:23:31.964Z,64.44
2023-05-01T03:25:59.538Z,64.20
2023-05-01T03:28:26.330Z,64.08
2023-05-01T03:30:54.477Z,64.37
2023-05-01T03:33:21.435Z,64.28
2023-05-01T03:35:58.837Z,64.31
2023-05-01T03:38:26.729Z,64.37
2023-05-01T03:40:53.664Z,64.30
2023-05-01T03:43:20.383Z,64.10
2023-05-01T03:45:47.056Z,64.33
2023-05-01T03:48:15.123Z,64.67
2023-05-01T03:50:42.284Z,64.38
2023-05-01T03:53:09.090Z,64.53
2023-05-01T03:55:35.708Z,64.43
2023-05-01T03:58:02.704Z,64.43
2023-05-01T04:00:29.586Z,64.68
2023-05-01T04:02:56.978Z,64.57
2023-05-01T04:05:25.451Z,64.39
2023-05-01T04:07:52.291Z,64.47
2023-05-01T04:10:19.200Z,64.88
2023-05-01T04:12:46.054Z,64.66
2023-05-01T04:15:14.225Z,64.61
2023-05-01T04:17:43.908Z,64.83
2023-05-01T04:20:11.602Z,64.83
2023-05-01T04:22:40.818Z,64.65
2023-05-01T04:25:08.667Z,64.82
2023-05-01T04:27:35.401Z,64.92
2023-05-01T04:30:02.130Z,64.64
2023-05-01T04:32:30.352Z,64.81
2023-05-01T04:34:57.829Z,64.78
2023-05-01T04:37:24.657Z,64.97
2023-05-01T04:39:53.539Z,64.54
2023-05-01T04:42:20.452Z,64.79
2023-05-01T04:44:47.404Z,64.84
2023-05-01T04:47:14.078Z,64.74
2023-05-01T04:49:40.986Z,64.39
2023-05-01T04:52:07.799Z,64.33
2023-05-01T04:54:34.507Z,64.50
2023-05-01T04:57:03.346Z,64.57
2023-05-01T04:59:30.104Z,64.75
2023-05-01T05:01:57.113Z,64.77
2023-05-01T05:04:24.874Z,64.67
2023-05-01T05:06:51.799Z,64.91
2023-05-01T05:09:20.184Z,64.50
2023-05-01T05:11:47.154Z,64.79
2023-05-01T05:14:15.385Z,64.74
2023-05-01T05:16:42.131Z,64.46
2023-05-01T05:19:08.840Z,64.51
2023-05-01T05:21:35.698Z,64.79
2023-05-01T05:24:02.398Z,64.66
2023-05-01T05:26:29.192Z,64.65
2023-05-01T05:28:55.917Z,64.43
2023-05-01T05:31:24.105Z,64.72
2023-05-01T05:33:50.845Z,64.88
2023-05-01T05:36:17.769Z,64.65
2023-05-01T05:38:44.458Z,64.58
2023-05-01T05:41:11.594Z,64.32
2023-05-01T05:43:38.284Z,64.67
2023-05-01T05:46:05.217Z,64.84
2023-05-01T05:48:33.369Z,64.57
2023-05-01T05:51:00.181Z,64.51
2023-05-01T05:53:26.983Z,64.72
2023-05-01T05:55:53.704Z,64.75
2023-05-01T05:58:20.430Z,64.31
2023-05-01T06:00:48.408Z,64.85
2023-05-01T06:03:16.207Z,64.63
2023-05-01T06:05:45.457Z,64.53
2023-05-01T06:08:12.407Z,64.37
2023-05-01T06:10:41.969Z,64.71
2023-05-01T06:13:13.665Z,64.73
2023-05-01T06:15:41.803Z,64.73
2023-05-01T06:18:09.785Z,64.71
2023-05-01T06:20:37.021Z,64.16
2023-05-01T06:23:05.299Z,64.43
2023-05-01T06:25:32.054Z,64.49
2023-05-01T06:27:58.769Z,64.71
2023-05-01T06:30:25.783Z,64.68
2023-05-01T06:32:52.596Z,64.59
2023-05-01T06:35:22.131Z,64.31
2023-05-01T06:37:48.956Z,64.40
2023-05-01T06:40:17.016Z,64.44
2023-05-01T06:42:43.823Z,64.43
2023-05-01T06:45:10.759Z,64.66
2023-05-01T06:47:37.514Z,64.64
2023-05-01T06:50:05.730Z,64.54
2023-05-01T06:52:32.708Z,64.27
2023-05-01T06:54:59.515Z,64.55
2023-05-01T06:57:27.640Z,64.34
2023-05-01T06:59:54.662Z,64.87
2023-05-01T07:02:21.648Z,64.66
2023-05-01T07:04:48.523Z,64.42
2023-05-01T07:07:15.307Z,64.35
2023-05-01T07:09:42.428Z,64.56
2023-05-01T07:12:09.162Z,64.83
2023-05-01T07:14:37.298Z,64.57
2023-05-01T07:17:04.418Z,64.75
2023-05-01T07:19:31.146Z,64.47
2023-05-01T07:21:57.899Z,64.67
2023-05-01T07:24:25.061Z,64.68
2023-05-01T07:26:51.935Z,64.62
2023-05-01T07:29:19.016Z,64.54
2023-05-01T07:31:48.349Z,64.62
2023-05-01T07:34:16.447Z,64.43
2023-05-01T07:36:43.194Z,64.23
2023-05-01T07:39:10.013Z,64.51
2023-05-01T07:41:36.825Z,64.34
2023-05-01T07:44:03.640Z,64.35
2023-05-01T07:46:30.683Z,64.61
2023-05-01T07:48:58.970Z,64.30
2023-05-01T07:51:25.769Z,64.54
2023-05-01T07:53:52.536Z,64.68
2023-05-01T07:56:19.239Z,64.35
2023-05-01T07:58:46.072Z,64.33
2023-05-01T08:01:12.822Z,64.47
2023-05-01T08:03:39.648Z,64.48
2023-05-01T08:06:07.962Z,64.56
2023-05-01T08:08:34.719Z,64.39
2023-05-01T08:11:01.429Z,64.24
2023-05-01T08:13:28.180Z,64.63
2023-05-01T08:15:55.081Z,64.35
2023-05-01T08:18:22.205Z,64.38
2023-05-01T08:20:49.436Z,64.23
2023-05-01T08:23:17.797Z,64.24
2023-05-01T08:25:46.999Z,64.14
2023-05-01T08:28:15.013Z,64.15
2023-05-01T08:30:41.859Z,63.92
2023-05-01T08:33:08.740Z,64.06
2023-05-01T08:35:35.589Z,63.82
2023-05-01T08:38:02.684Z,63.95
2023-05-01T08:40:36.447Z,63.90
2023-05-01T08:43:03.929Z,63.91
2023-05-01T08:45:36.286Z,63.64
2023-05-01T08:48:05.669Z,63.52
2023-05-01T08:50:35.855Z,63.66
2023-05-01T08:53:04.304Z,63.36
2023-05-01T08:55:33.463Z,63.55
2023-05-01T08:58:04.293Z,63.45
2023-05-01T09:00:34.290Z,63.44
2023-05-01T09:03:03.091Z,63.50
2023-05-01T09:05:33.431Z,63.12
2023-05-01T09:08:01.026Z,63.06
2023-05-01T09:10:27.982Z,62.97
2023-05-01T09:12:58.338Z,62.69
2023-05-01T09:15:26.526Z,62.64
2023-05-01T09:17:53.975Z,62.52
2023-05-01T09:20:21.216Z,62.56
2023-05-01T09:22:48.734Z,62.37
2023-05-01T09:25:15.412Z,62.28
2023-05-01T09:27:42.254Z,62.11
2023-05-01T09:30:29.404Z,61.99
2023-05-01T09:33:05.020Z,62.01
2023-05-01T09:35:33.266Z,62.02
2023-05-01T09:38:00.074Z,61.84
2023-05-01T09:40:28.094Z,61.55
2023-05-01T09:42:58.789Z,61.20
2023-05-01T09:45:27.912Z,60.68
2023-05-01T09:48:10.781Z,60.25
2023-05-01T09:50:38.611Z,60.38
2023-05-01T09:53:06.693Z,60.42
2023-05-01T09:55:34.111Z,60.42
2023-05-01T09:58:01.273Z,60.08
2023-05-01T10:00:30.233Z,60.06
2023-05-01T10:02:58.551Z,59.46
2023-05-01T10:05:26.284Z,59.39
2023-05-01T10:07:59.496Z,59.19
2023-05-01T10:10:26.577Z,59.05
2023-05-01T10:12:53.323Z,59.19
2023-05-01T10:15:26.502Z,58.87
2023-05-01T10:17:55.546Z,58.75
2023-05-01T10:20:22.463Z,58.59
2023-05-01T10:22:49.785Z,58.41
2023-05-01T10:25:17.822Z,58.26
2023-05-01T10:27:44.811Z,58.44
2023-05-01T10:30:12.666Z,58.31
2023-05-01T10:32:42.860Z,58.66
2023-05-01T10:35:14.535Z,57.83
2023-05-01T10:37:47.708Z,57.71
2023-05-01T10:40:46.913Z,57.45
2023-05-01T10:43:15.852Z,57.11
2023-05-01T10:45:43.381Z,57.21
2023-05-01T10:48:10.170Z,57.22
2023-05-01T11:03:58.140Z,57.21
2023-05-01T11:06:25.680Z,57.12
2023-05-01T11:08:55.028Z,57.13
2023-05-01T11:11:49.757Z,56.92
2023-05-01T11:14:17.998Z,56.67
2023-05-01T11:16:46.833Z,56.61
2023-05-01T11:19:49.492Z,56.36
2023-05-01T11:22:16.396Z,56.33
2023-05-01T11:24:43.385Z,56.04
2023-05-01T11:27:14.130Z,56.01
2023-05-01T11:29:44.325Z,55.81
2023-05-01T11:32:16.835Z,55.72
2023-05-01T11:34:43.958Z,55.64
2023-05-01T11:37:12.079Z,55.16
2023-05-01T11:39:38.752Z,55.28
2023-05-01T11:42:08.828Z,55.12
2023-05-01T11:44:37.575Z,55.34
2023-05-01T11:47:07.219Z,55.21
2023-05-01T11:49:34.282Z,55.06
2023-05-01T11:52:01.165Z,54.77
2023-05-01T11:54:29.403Z,54.78
2023-05-01T11:57:00.331Z,54.52
2023-05-01T11:59:27.451Z,54.14
2023-05-01T12:01:54.323Z,54.03
2023-05-01T12:04:30.677Z,54.00
2023-05-01T12:06:58.443Z,53.99
2023-05-01T12:09:29.267Z,54.02
2023-05-01T12:11:59.710Z,54.01
2023-05-01T12:14:26.597Z,53.97
2023-05-01T12:16:54.064Z,54.01
2023-05-01T12:19:22.437Z,54.10
2023-05-01T12:22:05.577Z,54.02
2023-05-01T12:24:33.408Z,53.41
2023-05-01T12:27:03.619Z,53.37
2023-05-01T12:29:40.058Z,52.28
2023-05-01T12:32:08.153Z,51.20
2023-05-01T12:34:34.906Z,49.63
2023-05-01T12:37:03.115Z,48.09
2023-05-01T12:39:41.122Z,46.53
2023-05-01T12:42:16.908Z,45.97
2023-05-01T12:44:45.025Z,45.66
2023-05-01T12:47:13.000Z,46.06
2023-05-01T12:49:40.604Z,45.38
2023-05-01T12:52:09.089Z,45.34
2023-05-01T12:54:38.511Z,45.99
2023-05-01T12:57:06.759Z,44.26
2023-05-01T12:59:36.727Z,43.90
2023-05-01T13:02:05.129Z,43.70
2023-05-01T13:04:32.414Z,44.48
2023-05-01T13:06:59.828Z,44.85
2023-05-01T13:09:32.821Z,45.14
2023-05-01T13:12:02.220Z,45.39
2023-05-01T13:14:31.008Z,44.63
2023-05-01T13:16:59.202Z,44.19
2023-05-01T13:19:28.468Z,44.11
2023-05-01T13:21:57.711Z,44.88
2023-05-01T13:24:24.902Z,45.45
2023-05-01T13:27:04.198Z,44.81
2023-05-01T13:29:33.344Z,42.80
2023-05-01T13:32:03.572Z,43.38
2023-05-01T13:34:33.231Z,43.98
2023-05-01T13:37:01.806Z,44.11
2023-05-01T13:39:29.395Z,43.05
2023-05-01T13:41:56.398Z,43.39
2023-05-01T13:44:23.254Z,44.02
2023-05-01T13:46:50.084Z,44.35
2023-05-01T13:49:21.754Z,43.53
2023-05-01T13:51:48.919Z,42.51
2023-05-01T13:54:17.065Z,42.33
2023-05-01T13:56:43.705Z,42.41
2023-05-01T13:59:10.812Z,42.41
2023-05-01T14:01:46.155Z,42.79
2023-05-01T14:04:16.930Z,42.62
2023-05-01T14:06:47.554Z,43.65
2023-05-01T14:09:17.866Z,44.51
2023-05-01T14:11:48.905Z,45.08
2023-05-01T14:14:17.150Z,45.63
2023-05-01T14:16:47.794Z,46.14
2023-05-01T14:19:18.499Z,46.43
2023-05-01T14:21:47.154Z,46.60
2023-05-01T14:24:18.113Z,46.74
2023-05-01T14:26:48.153Z,46.94
2023-05-01T14:29:22.951Z,47.28
2023-05-01T14:31:49.928Z,47.38
2023-05-01T14:34:18.568Z,47.46
2023-05-01T14:36:46.834Z,47.59
2023-05-01T14:39:15.921Z,47.25
2023-05-01T14:41:42.929Z,47.34
2023-05-01T14:44:13.048Z,47.05
2023-05-01T14:46:46.689Z,47.24
2023-05-01T14:49:19.276Z,46.94
2023-05-01T14:51:47.688Z,47.25
2023-05-01T14:54:15.295Z,47.08
2023-05-01T14:56:43.172Z,47.31
2023-05-01T14:59:09.878Z,47.58
2023-05-01T15:01:36.879Z,47.70
2023-05-01T15:04:07.401Z,47.98
2023-05-01T15:06:34.728Z,48.20
2023-05-01T15:09:04.541Z,48.77
2023-05-01T15:11:31.370Z,49.27
2023-05-01T15:13:58.315Z,49.58
2023-05-01T15:16:25.039Z,49.87
2023-05-01T15:18:51.725Z,50.01
2023-05-01T15:21:18.690Z,50.10
2023-05-01T15:23:46.382Z,50.46
2023-05-01T15:26:14.951Z,50.77
2023-05-01T15:28:42.265Z,51.18
2023-05-01T15:31:08.947Z,51.44
2023-05-01T15:33:35.755Z,51.86
2023-05-01T15:36:02.452Z,51.84
2023-05-01T15:38:29.824Z,52.05
2023-05-01T15:40:56.973Z,52.17
2023-05-01T15:43:25.141Z,52.35
2023-05-01T15:45:52.158Z,52.07
2023-05-01T15:48:19.260Z,51.93
2023-05-01T15:50:48.998Z,51.83
2023-05-01T15:53:17.223Z,51.91
2023-05-01T15:55:44.009Z,51.47
2023-05-01T15:58:13.087Z,51.48
2023-05-01T16:00:41.214Z,51.35
2023-05-01T16:03:08.415Z,50.79
2023-05-01T16:05:37.190Z,51.17
2023-05-01T16:08:06.275Z,50.67
2023-05-01T16:10:37.373Z,50.65
2023-05-01T16:13:05.804Z,50.60
2023-05-01T16:15:33.260Z,50.10
2023-05-01T16:18:04.279Z,49.73
2023-05-01T16:20:35.113Z,49.25
2023-05-01T16:23:03.347Z,49.39
2023-05-01T16:25:30.519Z,48.94
2023-05-01T16:27:57.253Z,49.02
2023-05-01T16:30:27.748Z,49.11
2023-05-01T16:32:54.763Z,49.17
2023-05-01T16:35:26.777Z,48.97
2023-05-01T16:37:53.858Z,49.43
2023-05-01T16:40:22.108Z,49.52
2023-05-01T16:42:52.569Z,49.63
2023-05-01T16:45:19.479Z,49.73
2023-05-01T16:47:47.359Z,49.79
2023-05-01T16:50:14.342Z,49.76
2023-05-01T16:52:42.414Z,49.92
2023-05-01T16:55:10.074Z,50.04
2023-05-01T16:57:37.086Z,50.33
2023-05-01T17:00:05.352Z,50.16
2023-05-01T17:02:33.326Z,50.01
2023-05-01T17:05:00.617Z,49.95
2023-05-01T17:07:27.245Z,50.07
2023-05-01T17:09:55.380Z,50.22
2023-05-01T17:12:22.284Z,50.07
2023-05-01T17:14:49.125Z,50.30
2023-05-01T17:17:17.872Z,50.34
2023-05-01T17:19:44.656Z,50.38
2023-05-01T17:22:11.368Z,50.42
2023-05-01T17:24:38.302Z,50.59
2023-05-01T17:27:06.519Z,50.66
2023-05-01T17:29:33.195Z,50.94
2023-05-01T17:32:00.031Z,51.03
2023-05-01T17:34:26.819Z,51.06
2023-05-01T17:36:55.209Z,51.18
2023-05-01T17:39:23.328Z,51.01
2023-05-01T17:41:50.033Z,51.30
2023-05-01T17:44:18.053Z,51.29
2023-05-01T17:46:44.912Z,51.39
2023-05-01T17:49:11.595Z,51.44
2023-05-01T17:51:38.243Z,51.67
2023-05-01T17:54:05.972Z,51.93
2023-05-01T17:56:36.087Z,51.63
2023-05-01T17:59:46.203Z,51.67
2023-05-01T18:02:20.133Z,51.83
2023-05-01T18:04:50.247Z,52.11
2023-05-01T18:07:17.252Z,52.19
2023-05-01T18:09:43.996Z,52.59
2023-05-01T18:12:11.362Z,53.31
2023-05-01T18:14:39.429Z,54.13
2023-05-01T18:17:06.361Z,55.22
2023-05-01T18:19:33.290Z,55.44
2023-05-01T18:22:00.117Z,56.20
2023-05-01T18:24:27.383Z,56.71
2023-05-01T18:26:54.052Z,57.15
2023-05-01T18:29:22.869Z,57.26
2023-05-01T18:31:51.265Z,57.74
2023-05-01T18:34:19.227Z,57.95
2023-05-01T18:36:47.614Z,58.38
2023-05-01T18:39:14.551Z,58.64
2023-05-01T18:41:41.314Z,58.82
2023-05-01T18:44:07.986Z,59.37
2023-05-01T18:46:36.031Z,59.45
2023-05-01T18:49:04.032Z,60.16
2023-05-01T18:51:31.334Z,59.99
2023-05-01T18:53:59.234Z,60.27
2023-05-01T18:56:27.994Z,60.41
2023-05-01T18:58:55.997Z,60.63
2023-05-01T19:01:23.398Z,60.58
2023-05-01T19:03:50.084Z,61.24
2023-05-01T19:06:18.097Z,61.35
2023-05-01T19:08:45.046Z,61.29
2023-05-01T19:11:11.747Z,61.43
2023-05-01T19:13:39.645Z,61.65
2023-05-01T19:16:06.539Z,61.70
2023-05-01T19:18:33.604Z,62.07
2023-05-01T19:21:00.458Z,61.83
2023-05-01T19:23:30.676Z,61.89
2023-05-01T19:25:58.104Z,61.98
2023-05-01T19:28:24.845Z,62.43
2023-05-01T19:30:51.818Z,62.13
2023-05-01T19:33:18.583Z,62.18
2023-05-01T19:35:45.806Z,62.56
2023-05-01T19:38:14.905Z,62.74
2023-05-01T19:40:44.924Z,62.60
2023-05-01T19:43:13.403Z,63.04
2023-05-01T19:45:40.722Z,63.63
2023-05-01T19:48:07.738Z,63.87
2023-05-01T19:50:34.621Z,63.50
2023-05-01T19:53:02.109Z,63.63
2023-05-01T19:55:28.776Z,63.69
2023-05-01T19:57:57.152Z,63.48
2023-05-01T20:00:23.868Z,63.83
2023-05-01T20:02:50.657Z,63.49
2023-05-01T20:05:17.456Z,63.48
2023-05-01T20:07:45.320Z,63.84
2023-05-01T20:10:12.069Z,63.64
2023-05-01T20:12:38.999Z,64.00
2023-05-01T20:15:10.369Z,64.19
2023-05-01T20:17:37.165Z,64.10
2023-05-01T20:20:04.466Z,64.00
2023-05-01T20:22:31.619Z,63.92
2023-05-01T20:24:58.311Z,64.02
2023-05-01T20:27:26.348Z,63.86
2023-05-01T20:29:53.146Z,63.90
2023-05-01T20:32:21.183Z,64.05
2023-05-01T20:34:48.348Z,64.16
2023-05-01T20:37:15.131Z,64.12
2023-05-01T20:39:41.798Z,64.14
2023-05-01T20:42:09.060Z,64.09
2023-05-01T20:44:35.819Z,64.18
2023-05-01T20:47:02.598Z,64.82
2023-05-01T20:49:30.669Z,64.66
2023-05-01T20:51:58.963Z,64.42
2023-05-01T20:54:25.798Z,64.70
2023-05-01T20:56:53.111Z,64.52
2023-05-01T20:59:19.913Z,64.70
2023-05-01T21:01:46.804Z,64.85
2023-05-01T21:04:13.640Z,65.07
2023-05-01T21:06:41.986Z,64.80
2023-05-01T21:09:11.147Z,65.02
2023-05-01T21:11:39.480Z,64.95
2023-05-01T21:14:07.286Z,65.07
2023-05-01T21:16:34.268Z,65.79
2023-05-01T21:19:01.232Z,65.82
2023-05-01T21:21:28.051Z,65.85
2023-05-01T21:23:56.124Z,65.89
2023-05-01T21:26:22.988Z,66.05
2023-05-01T21:28:49.950Z,66.11
2023-05-01T21:31:17.033Z,66.38
2023-05-01T21:33:47.417Z,66.60
2023-05-01T21:36:17.335Z,66.81
2023-05-01T21:38:45.931Z,66.64
2023-05-01T21:41:21.097Z,66.60
2023-05-01T21:43:47.977Z,66.55
2023-05-01T21:46:15.998Z,66.37
2023-05-01T21:48:42.877Z,66.77
2023-05-01T21:51:09.655Z,67.14
2023-05-01T21:53:40.540Z,67.10
2023-05-01T21:56:07.592Z,67.07
2023-05-01T21:58:36.061Z,67.61
2023-05-01T22:01:03.187Z,68.02
2023-05-01T22:03:33.313Z,68.34
2023-05-01T22:06:00.367Z,68.31
2023-05-01T22:08:28.762Z,68.67
2023-05-01T22:10:55.470Z,69.30
2023-05-01T22:13:22.161Z,69.14
2023-05-01T22:15:50.534Z,69.04
2023-05-01T22:18:19.629Z,69.21
2023-05-01T22:20:46.721Z,68.84
2023-05-01T22:23:14.295Z,69.28
2023-05-01T22:25:41.047Z,69.70
2023-05-01T22:28:08.796Z,69.77
2023-05-01T22:30:37.210Z,70.01
2023-05-01T22:33:05.614Z,70.19
2023-05-01T22:35:32.344Z,70.08
2023-05-01T22:37:59.141Z,70.08
2023-05-01T22:40:26.414Z,70.18
2023-05-01T22:42:53.293Z,70.40
2023-05-01T22:45:20.764Z,70.41
2023-05-01T22:47:47.509Z,70.55
2023-05-01T22:50:17.024Z,70.87
2023-05-01T22:52:45.828Z,71.00
2023-05-01T22:55:13.422Z,70.84
2023-05-01T22:57:40.094Z,70.58
2023-05-01T23:00:09.670Z,70.33
2023-05-01T23:02:36.584Z,70.74
2023-05-01T23:05:04.055Z,71.24
2023-05-01T23:07:32.103Z,71.64
2023-05-01T23:09:59.017Z,71.83
2023-05-01T23:12:27.791Z,71.86
2023-05-01T23:14:55.392Z,71.62
2023-05-01T23:17:22.492Z,71.32
2023-05-01T23:19:51.079Z,71.74
2023-05-01T23:22:19.175Z,71.68
2023-05-01T23:24:48.537Z,71.62
2023-05-01T23:27:15.967Z,71.55
2023-05-01T23:29:54.603Z,71.65
2023-05-01T23:32:27.107Z,72.17
2023-05-01T23:34:55.049Z,72.32
2023-05-01T23:37:22.100Z,71.87
2023-05-01T23:39:51.169Z,72.67
2023-05-01T23:42:17.863Z,72.22
2023-05-01T23:44:44.644Z,72.12
2023-05-01T23:47:11.657Z,72.43
2023-05-01T23:49:38.555Z,72.24
2023-05-01T23:52:06.855Z,72.04
2023-05-01T23:54:33.630Z,71.77
2023-05-01T23:57:02.701Z,71.91
2023-05-01T23:59:29.425Z,71.86
